Time;durP1;ratioP1;P1;durP2;ratioP2;P2;SDS_P1;SDS_P2;PMS_P1;PMS_P2;Temp;Humidity;BMP_temperature;BMP_pressure;BME280_temperature;BME280_humidity;BME280_pressure;Samples;Min_cycle;Max_cycle;Signal;HPM_P1;HPM_P2
2021/05/03 00:02:23;;;;;;;3.97;1.42;;;6.80;91.40;;;;;;5051949;28;20033;-78
2021/05/03 00:04:49;;;;;;;6.85;1.40;;;6.70;91.40;;;;;;5058772;28;20025;-78
2021/05/03 00:07:15;;;;;;;2.72;1.67;;;6.70;91.30;;;;;;5045472;28;20039;-78
2021/05/03 00:09:40;;;;;;;1.45;1.35;;;6.70;91.60;;;;;;5059039;28;20463;-78
2021/05/03 00:12:07;;;;;;;2.03;1.35;;;6.60;91.70;;;;;;5052214;28;20025;-78
2021/05/03 00:14:32;;;;;;;4.07;1.60;;;6.60;92.00;;;;;;5052239;28;20038;-78
2021/05/03 00:16:58;;;;;;;2.15;1.38;;;6.60;92.10;;;;;;5051985;28;20681;-78
2021/05/03 00:19:24;;;;;;;3.03;1.63;;;6.50;92.10;;;;;;5051813;28;20415;-78
2021/05/03 00:21:49;;;;;;;2.65;1.55;;;6.50;92.20;;;;;;5051176;28;20083;-78
2021/05/03 00:24:15;;;;;;;1.48;1.27;;;6.50;92.20;;;;;;5052178;28;20104;-78
2021/05/03 00:26:40;;;;;;;13.07;2.10;;;6.50;92.20;;;;;;5051287;28;20080;-78
2021/05/03 00:29:07;;;;;;;3.38;1.90;;;6.50;92.20;;;;;;5051717;28;20025;-78
2021/05/03 00:31:35;;;;;;;1.58;1.45;;;6.40;92.10;;;;;;5051432;28;20452;-78
2021/05/03 00:34:01;;;;;;;8.38;1.80;;;6.40;92.10;;;;;;5052328;28;20104;-78
2021/05/03 00:36:26;;;;;;;5.60;1.33;;;6.40;92.20;;;;;;5064771;28;20059;-78
2021/05/03 00:38:52;;;;;;;2.17;1.30;;;6.40;92.50;;;;;;5051589;28;20567;-78
2021/05/03 00:41:18;;;;;;;1.75;1.60;;;6.40;92.30;;;;;;5065474;28;20078;-78
2021/05/03 00:43:44;;;;;;;2.42;1.52;;;6.40;92.20;;;;;;5049475;28;20025;-78
2021/05/03 00:46:09;;;;;;;7.60;2.33;;;6.40;92.20;;;;;;5050295;28;20336;-78
2021/05/03 00:48:35;;;;;;;12.00;1.70;;;6.40;92.10;;;;;;5051676;28;20029;-78
2021/05/03 00:51:01;;;;;;;2.33;1.30;;;6.40;91.90;;;;;;5052832;28;20028;-78
2021/05/03 00:53:27;;;;;;;1.88;1.58;;;6.50;91.90;;;;;;5051086;28;20036;-78
2021/05/03 00:55:53;;;;;;;3.97;1.58;;;6.50;91.50;;;;;;5052342;28;20387;-78
2021/05/03 00:58:18;;;;;;;2.42;1.30;;;6.50;91.50;;;;;;5052093;28;20534;-79
2021/05/03 01:00:44;;;;;;;2.55;1.45;;;6.50;91.40;;;;;;5051562;28;20368;-78
2021/05/03 01:03:10;;;;;;;0.93;0.82;;;6.40;91.50;;;;;;5055105;28;20017;-78
2021/05/03 01:05:37;;;;;;;1.92;1.42;;;6.40;91.50;;;;;;5056207;28;20055;-78
2021/05/03 01:08:03;;;;;;;3.75;2.03;;;6.40;91.50;;;;;;5066879;28;20459;-78
2021/05/03 01:10:30;;;;;;;1.67;1.40;;;6.40;91.60;;;;;;5059062;28;20028;-78
2021/05/03 01:12:57;;;;;;;2.22;1.17;;;6.30;91.60;;;;;;5055777;28;20024;-79
2021/05/03 01:15:24;;;;;;;2.15;1.60;;;6.30;91.60;;;;;;5055445;28;20373;-78
2021/05/03 01:17:58;;;;;;;4.72;1.40;;;6.30;91.70;;;;;;5055648;28;20074;-78
2021/05/03 01:20:35;;;;;;;1.95;1.48;;;6.30;91.80;;;;;;5055239;28;20037;-78
2021/05/03 01:23:02;;;;;;;2.63;1.70;;;6.30;91.90;;;;;;5055374;28;20080;-78
2021/05/03 01:25:31;;;;;;;1.65;1.50;;;6.30;91.80;;;;;;5054524;28;20025;-78
2021/05/03 01:27:58;;;;;;;2.38;2.15;;;6.20;91.90;;;;;;5055325;28;20399;-78
2021/05/03 01:30:37;;;;;;;2.33;1.40;;;6.20;91.80;;;;;;5054747;28;20026;-78
2021/05/03 01:33:05;;;;;;;3.00;1.58;;;6.20;91.90;;;;;;5054437;28;20392;-78
2021/05/03 01:35:32;;;;;;;2.97;1.52;;;6.20;91.90;;;;;;5042466;28;20032;-78
2021/05/03 01:37:59;;;;;;;3.78;1.75;;;6.20;91.90;;;;;;5054965;28;20079;-78
2021/05/03 01:40:28;;;;;;;4.85;1.52;;;6.20;92.10;;;;;;5054048;28;20021;-78
2021/05/03 01:42:55;;;;;;;3.38;1.80;;;6.10;92.10;;;;;;5059463;28;20025;-78
2021/05/03 01:45:26;;;;;;;5.40;1.70;;;6.20;92.10;;;;;;5055381;28;20111;-78
2021/05/03 01:47:53;;;;;;;2.97;2.03;;;6.10;91.90;;;;;;5054582;28;20042;-78
2021/05/03 01:50:21;;;;;;;2.38;1.55;;;6.10;92.40;;;;;;5062731;28;20058;-78
2021/05/03 01:52:47;;;;;;;2.97;1.77;;;6.10;92.40;;;;;;5058788;28;20037;-78
2021/05/03 01:55:13;;;;;;;6.63;2.20;;;6.10;92.40;;;;;;5053842;28;20052;-78
2021/05/03 01:57:40;;;;;;;1.60;1.48;;;6.10;92.60;;;;;;5054957;28;20051;-78
2021/05/03 02:00:07;;;;;;;3.30;1.80;;;6.10;92.40;;;;;;5054498;28;20029;-78
2021/05/03 02:02:33;;;;;;;4.50;1.90;;;6.10;92.40;;;;;;5056186;28;20033;-78
2021/05/03 02:04:59;;;;;;;1.52;1.42;;;6.10;92.20;;;;;;5068541;28;20028;-78
2021/05/03 02:07:25;;;;;;;6.80;2.35;;;6.00;92.20;;;;;;5058050;28;20032;-78
2021/05/03 02:09:50;;;;;;;2.00;1.80;;;6.00;92.40;;;;;;5045857;28;20038;-78
2021/05/03 02:12:16;;;;;;;2.15;1.75;;;6.00;92.40;;;;;;5057026;28;20413;-78
2021/05/03 02:14:42;;;;;;;3.03;1.85;;;6.00;92.60;;;;;;5053301;28;20048;-79
2021/05/03 02:17:09;;;;;;;1.73;1.63;;;6.00;92.50;;;;;;5059002;28;20082;-78
2021/05/03 02:19:34;;;;;;;5.82;2.03;;;6.00;92.40;;;;;;5071141;28;20040;-78
2021/05/03 02:22:00;;;;;;;2.13;1.67;;;5.90;92.60;;;;;;5072354;28;20036;-78
2021/05/03 02:24:26;;;;;;;6.88;1.67;;;5.90;92.50;;;;;;5063873;28;20132;-78
2021/05/03 02:26:52;;;;;;;3.13;2.05;;;5.90;92.60;;;;;;5052575;28;20059;-79
2021/05/03 02:29:18;;;;;;;2.97;1.95;;;5.90;92.70;;;;;;5061755;28;20060;-78
2021/05/03 02:31:43;;;;;;;6.63;2.00;;;5.90;92.90;;;;;;5054845;28;20032;-78
2021/05/03 02:34:09;;;;;;;3.58;2.08;;;5.90;92.90;;;;;;5064952;28;20460;-78
2021/05/03 02:36:35;;;;;;;2.25;1.98;;;5.90;92.70;;;;;;5054925;28;20044;-78
2021/05/03 02:39:00;;;;;;;7.57;1.90;;;5.90;92.70;;;;;;5053448;28;20028;-78
2021/05/03 02:41:26;;;;;;;4.55;1.80;;;5.90;92.30;;;;;;5065003;28;20033;-78
2021/05/03 02:43:52;;;;;;;4.35;2.03;;;5.90;92.30;;;;;;5053710;28;20021;-78
2021/05/03 02:46:17;;;;;;;3.00;1.80;;;5.80;92.60;;;;;;5053910;28;20170;-78
2021/05/03 02:48:43;;;;;;;6.28;1.73;;;5.80;92.60;;;;;;5053739;28;20496;-78
2021/05/03 02:51:09;;;;;;;2.15;1.92;;;5.80;92.60;;;;;;5054285;28;20028;-78
2021/05/03 02:53:35;;;;;;;2.78;1.90;;;5.80;92.50;;;;;;5053213;28;20021;-78
2021/05/03 02:56:00;;;;;;;2.47;1.75;;;5.70;92.30;;;;;;5053745;28;20029;-78
2021/05/03 02:58:26;;;;;;;2.00;1.80;;;5.60;92.30;;;;;;5053915;28;20078;-78
2021/05/03 03:00:52;;;;;;;5.03;2.42;;;5.60;92.40;;;;;;5053032;28;20043;-78
2021/05/03 03:03:17;;;;;;;3.28;1.90;;;5.50;92.90;;;;;;5052664;28;20028;-78
2021/05/03 03:05:43;;;;;;;3.88;2.35;;;5.50;92.90;;;;;;5053282;28;20102;-78
2021/05/03 03:08:09;;;;;;;3.78;2.10;;;5.50;93.10;;;;;;5047863;28;20075;-78
2021/05/03 03:10:34;;;;;;;2.63;1.80;;;5.50;93.10;;;;;;5053372;28;20028;-78
2021/05/03 03:13:02;;;;;;;3.28;1.90;;;5.50;93.30;;;;;;5053240;28;20032;-78
2021/05/03 03:15:33;;;;;;;2.63;2.03;;;5.40;93.10;;;;;;5053430;28;20036;-78
2021/05/03 03:18:01;;;;;;;2.22;1.70;;;5.40;93.10;;;;;;5054360;28;20350;-78
2021/05/03 03:20:27;;;;;;;2.67;1.70;;;5.40;93.40;;;;;;5053476;28;20036;-78
2021/05/03 03:22:53;;;;;;;2.65;1.88;;;5.40;93.70;;;;;;5052355;28;20074;-72
2021/05/03 03:25:19;;;;;;;5.00;1.90;;;5.40;93.60;;;;;;5051386;28;20032;-77
2021/05/03 03:27:45;;;;;;;3.97;2.08;;;5.40;93.90;;;;;;5061315;28;20032;-79
2021/05/03 03:30:13;;;;;;;3.00;2.13;;;5.40;93.80;;;;;;5056533;28;20037;-78
2021/05/03 03:32:43;;;;;;;7.60;2.22;;;5.40;93.50;;;;;;5051896;28;20025;-79
2021/05/03 03:35:16;;;;;;;2.33;1.88;;;5.40;93.60;;;;;;5065086;28;20033;-78
2021/05/03 03:37:42;;;;;;;;;;;5.40;93.80;;;;;;5052986;28;20543;-78
2021/05/03 03:40:09;;;;;;;3.60;2.15;;;5.40;93.70;;;;;;5058508;28;19955;-78
2021/05/03 03:42:35;;;;;;;2.72;1.85;;;5.40;93.80;;;;;;5059787;28;20112;-78
2021/05/03 03:45:00;;;;;;;2.75;2.13;;;5.40;93.70;;;;;;5049304;28;20562;-78
2021/05/03 03:47:28;;;;;;;5.43;2.95;;;5.40;93.70;;;;;;5045089;28;20033;-78
2021/05/03 03:49:53;;;;;;;16.98;2.70;;;5.30;93.80;;;;;;5053396;28;20071;-78
2021/05/03 03:52:20;;;;;;;2.53;1.92;;;5.30;93.80;;;;;;5052314;28;20052;-78
2021/05/03 03:54:45;;;;;;;3.45;2.35;;;5.30;93.70;;;;;;5053130;28;20096;-78
2021/05/03 03:57:11;;;;;;;3.15;2.13;;;5.30;93.70;;;;;;5051149;28;20063;-78
2021/05/03 03:59:42;;;;;;;3.78;2.47;;;5.30;93.60;;;;;;5052258;28;20108;-78
2021/05/03 04:02:08;;;;;;;3.28;2.15;;;5.30;93.60;;;;;;5051383;28;20439;-79
2021/05/03 04:04:35;;;;;;;4.03;2.20;;;5.30;94.10;;;;;;5051958;28;20048;-78
2021/05/03 04:23:21;;;;;;;3.28;2.17;;;5.10;93.80;;;;;;5052085;28;20135;-78
2021/05/03 04:25:47;;;;;;;4.93;2.25;;;5.10;93.80;;;;;;5057055;28;20483;-72
2021/05/03 04:28:13;;;;;;;3.08;2.33;;;5.10;93.80;;;;;;5057722;28;20495;-78
2021/05/03 04:30:38;;;;;;;6.50;2.65;;;5.00;93.70;;;;;;5053407;28;20038;-78
2021/05/03 04:33:04;;;;;;;4.07;2.88;;;5.00;93.40;;;;;;5050784;28;20205;-78
2021/05/03 04:35:31;;;;;;;5.75;2.40;;;5.00;93.30;;;;;;5053123;28;20450;-79
2021/05/03 04:37:57;;;;;;;9.57;2.70;;;4.90;93.30;;;;;;5056321;28;20031;-78
2021/05/03 04:40:22;;;;;;;3.78;2.53;;;4.90;93.50;;;;;;5057301;28;20523;-78
2021/05/03 04:42:48;;;;;;;5.57;2.80;;;4.80;93.60;;;;;;5056604;28;20021;-78
2021/05/03 04:45:15;;;;;;;7.22;2.40;;;4.70;93.80;;;;;;5055926;28;20322;-78
2021/05/03 04:47:42;;;;;;;6.65;2.67;;;4.70;93.90;;;;;;5055879;28;20376;-78
2021/05/03 04:50:09;;;;;;;5.40;2.90;;;4.70;94.10;;;;;;5055497;28;20032;-78
2021/05/03 04:52:36;;;;;;;5.22;2.97;;;4.70;94.10;;;;;;5055932;28;20040;-78
2021/05/03 04:55:03;;;;;;;4.82;2.80;;;4.70;94.10;;;;;;5056319;28;20067;-78
2021/05/03 04:57:29;;;;;;;4.18;2.95;;;4.60;94.10;;;;;;5048145;28;20448;-78
2021/05/03 04:59:55;;;;;;;4.88;3.30;;;4.60;94.10;;;;;;5054146;28;20127;-78
2021/05/03 05:02:21;;;;;;;6.50;3.30;;;4.60;94.30;;;;;;5054671;28;20033;-75
2021/05/03 05:04:46;;;;;;;7.22;2.58;;;4.60;94.40;;;;;;5056413;28;20108;-78
2021/05/03 05:07:12;;;;;;;5.70;3.30;;;4.60;94.40;;;;;;5055577;28;20140;-72
2021/05/03 05:09:38;;;;;;;5.40;3.58;;;4.60;94.90;;;;;;5049853;28;20487;-78
2021/05/03 05:12:04;;;;;;;5.53;3.63;;;4.60;94.90;;;;;;5061001;28;20492;-78
2021/05/03 05:14:29;;;;;;;4.72;3.53;;;4.70;95.30;;;;;;5052782;28;20403;-78
2021/05/03 05:16:56;;;;;;;8.32;4.15;;;4.70;95.40;;;;;;5055260;28;20025;-78
2021/05/03 05:19:23;;;;;;;5.95;3.42;;;4.80;95.50;;;;;;5054971;28;20053;-78
2021/05/03 05:21:49;;;;;;;6.35;3.38;;;4.80;95.40;;;;;;5055395;28;20074;-78
2021/05/03 05:24:14;;;;;;;5.50;3.22;;;4.90;95.80;;;;;;5054869;28;20025;-78
2021/05/03 05:26:41;;;;;;;5.55;3.20;;;5.00;95.70;;;;;;5054992;28;20033;-78
2021/05/03 05:29:06;;;;;;;8.38;3.42;;;5.10;95.60;;;;;;5055440;28;20434;-78
2021/05/03 05:31:32;;;;;;;4.03;2.78;;;5.10;95.60;;;;;;5064566;28;20033;-78
2021/05/03 05:33:58;;;;;;;4.40;3.17;;;5.30;95.90;;;;;;5053712;28;20033;-78
2021/05/03 05:36:23;;;;;;;5.60;2.53;;;5.40;95.70;;;;;;5049646;28;20029;-78
2021/05/03 05:38:49;;;;;;;5.20;2.95;;;5.50;95.60;;;;;;5054593;28;20064;-78
2021/05/03 05:41:17;;;;;;;4.35;2.60;;;5.60;95.60;;;;;;5065070;28;20081;-76
2021/05/03 05:43:43;;;;;;;6.70;3.42;;;5.70;95.50;;;;;;5060828;28;20425;-78
2021/05/03 05:46:09;;;;;;;4.95;2.97;;;5.70;95.50;;;;;;5054230;28;20033;-78
2021/05/03 05:48:38;;;;;;;7.53;2.80;;;5.80;95.40;;;;;;5061019;28;20372;-78
2021/05/03 05:51:04;;;;;;;2.63;2.42;;;5.80;95.00;;;;;;5055345;28;20024;-78
2021/05/03 05:53:31;;;;;;;3.63;2.53;;;6.00;95.10;;;;;;5061519;28;20036;-78
2021/05/03 05:55:57;;;;;;;8.50;3.05;;;6.00;95.20;;;;;;5055569;28;20017;-78
2021/05/03 05:58:23;;;;;;;5.05;2.58;;;6.20;95.50;;;;;;5060696;28;20025;-78
2021/05/03 06:00:48;;;;;;;5.53;3.25;;;6.30;95.40;;;;;;5053749;28;20222;-78
2021/05/03 06:03:14;;;;;;;4.80;2.35;;;6.40;95.30;;;;;;5055846;28;20020;-78
2021/05/03 06:05:40;;;;;;;4.20;2.80;;;6.50;95.20;;;;;;5054141;28;20450;-78
2021/05/03 06:08:05;;;;;;;5.93;3.03;;;6.60;95.00;;;;;;5052546;28;20398;-76
2021/05/03 06:10:31;;;;;;;2.97;2.35;;;6.80;94.40;;;;;;5050249;28;20103;-78
2021/05/03 06:12:56;;;;;;;4.55;2.65;;;7.00;94.60;;;;;;5049015;28;20032;-78
2021/05/03 06:15:22;;;;;;;4.18;2.47;;;7.00;94.30;;;;;;5050906;28;20021;-78
2021/05/03 06:17:48;;;;;;;6.97;2.97;;;7.10;94.10;;;;;;5051711;28;20031;-78
2021/05/03 06:20:13;;;;;;;4.55;2.67;;;7.30;94.00;;;;;;5052209;28;20049;-78
2021/05/03 06:22:39;;;;;;;4.75;2.67;;;7.40;93.80;;;;;;5051400;28;20033;-78
2021/05/03 06:25:07;;;;;;;9.32;2.58;;;7.50;93.30;;;;;;5046706;28;20513;-78
2021/05/03 06:27:32;;;;;;;3.97;2.67;;;7.80;93.10;;;;;;5045763;28;20029;-78
2021/05/03 06:29:58;;;;;;;7.00;3.03;;;7.90;92.80;;;;;;5051258;28;20116;-78
2021/05/03 06:32:24;;;;;;;6.10;3.10;;;8.00;93.00;;;;;;5050538;28;20025;-77
2021/05/03 06:34:49;;;;;;;5.65;2.67;;;8.10;92.60;;;;;;5052502;28;20031;-76
2021/05/03 06:37:15;;;;;;;7.28;3.05;;;8.30;91.80;;;;;;5050810;28;20025;-77
2021/05/03 06:39:41;;;;;;;4.80;2.78;;;8.40;91.50;;;;;;5052772;28;20024;-77
2021/05/03 06:42:07;;;;;;;4.25;2.80;;;8.40;90.80;;;;;;5058721;28;20068;-77
2021/05/03 06:44:34;;;;;;;4.05;2.22;;;8.50;90.90;;;;;;5052371;28;20037;-77
2021/05/03 06:47:02;;;;;;;4.93;2.78;;;8.60;91.00;;;;;;5046333;28;20112;-77
2021/05/03 06:49:27;;;;;;;8.05;3.38;;;8.70;90.80;;;;;;5047068;28;20025;-76
2021/05/03 06:51:53;;;;;;;3.13;2.65;;;8.80;91.10;;;;;;5052236;28;20387;-76
2021/05/03 06:54:19;;;;;;;4.35;2.63;;;9.00;91.30;;;;;;5051869;28;20096;-78
2021/05/03 06:56:44;;;;;;;10.20;1.98;;;9.10;91.00;;;;;;5051878;28;20839;-78
2021/05/03 06:59:10;;;;;;;5.00;2.17;;;9.20;91.10;;;;;;5048747;28;20157;-77
2021/05/03 07:01:36;;;;;;;3.72;1.33;;;9.40;90.90;;;;;;5049646;28;20583;-75
2021/05/03 07:04:02;;;;;;;1.60;1.48;;;9.60;90.80;;;;;;5049518;28;20089;-75
2021/05/03 07:06:27;;;;;;;4.78;1.70;;;9.70;89.80;;;;;;5049579;28;20029;-75
2021/05/03 07:08:53;;;;;;;2.33;1.58;;;9.90;88.70;;;;;;5050222;28;20144;-75
2021/05/03 07:11:27;;;;;;;1.83;1.35;;;10.10;87.20;;;;;;5048927;28;20039;-76
2021/05/03 07:13:53;;;;;;;3.28;1.10;;;10.20;87.90;;;;;;5047766;28;20044;-77
2021/05/03 07:16:18;;;;;;;2.80;1.52;;;10.30;88.10;;;;;;5042174;28;20069;-76
2021/05/03 07:18:44;;;;;;;3.17;1.58;;;10.50;87.30;;;;;;5048610;28;20060;-76
2021/05/03 07:21:10;;;;;;;2.05;1.40;;;10.60;86.30;;;;;;5048246;28;20029;-76
2021/05/03 07:23:35;;;;;;;3.60;1.10;;;10.80;86.20;;;;;;5048082;28;20024;-77
2021/05/03 07:26:04;;;;;;;4.15;1.92;;;11.00;86.30;;;;;;5048946;28;20036;-76
2021/05/03 07:28:29;;;;;;;3.25;1.58;;;11.20;84.40;;;;;;5050320;28;20024;-77
2021/05/03 07:30:58;;;;;;;4.25;2.50;;;11.40;80.90;;;;;;5048554;28;20033;-76
2021/05/03 07:33:27;;;;;;;4.07;2.00;;;11.60;80.30;;;;;;5047666;28;20105;-74
2021/05/03 07:35:53;;;;;;;2.92;1.55;;;11.80;80.40;;;;;;5050290;28;20021;-75
2021/05/03 07:38:19;;;;;;;3.55;1.95;;;12.10;78.00;;;;;;5049020;28;20209;-75
2021/05/03 07:40:45;;;;;;;2.50;1.77;;;12.30;74.90;;;;;;5051362;28;20525;-75
2021/05/03 07:43:11;;;;;;;1.20;1.05;;;12.50;74.00;;;;;;5049196;28;20028;-75
2021/05/03 07:45:37;;;;;;;2.28;1.40;;;12.70;73.50;;;;;;5049343;28;20041;-77
2021/05/03 07:48:03;;;;;;;2.83;1.75;;;13.10;72.20;;;;;;5049498;28;20500;-76
2021/05/03 07:50:28;;;;;;;3.17;1.08;;;15.00;66.70;;;;;;5048174;28;20129;-76
2021/05/03 07:52:55;;;;;;;4.13;1.35;;;18.10;58.40;;;;;;5049725;28;20475;-76
2021/05/03 07:55:21;;;;;;;2.22;1.13;;;20.20;49.60;;;;;;5049228;28;20375;-76
2021/05/03 07:57:47;;;;;;;9.07;1.80;;;20.60;48.40;;;;;;5052896;28;20061;-76
2021/05/03 08:00:13;;;;;;;1.98;1.50;;;21.60;45.10;;;;;;5050463;28;20033;-76
2021/05/03 08:02:39;;;;;;;2.83;1.10;;;22.10;44.40;;;;;;5047583;28;20057;-76
2021/05/03 08:05:05;;;;;;;2.90;1.00;;;23.40;41.20;;;;;;5048263;28;20119;-76
2021/05/03 08:07:31;;;;;;;5.20;1.05;;;24.60;37.90;;;;;;5049673;28;20371;-76
2021/05/03 08:09:57;;;;;;;1.75;0.80;;;23.20;37.60;;;;;;5048395;28;20029;-75
2021/05/03 08:12:22;;;;;;;1.77;1.38;;;21.90;40.00;;;;;;5047755;28;20108;-75
2021/05/03 08:14:49;;;;;;;2.42;1.35;;;21.60;41.20;;;;;;5048365;28;20126;-76
2021/05/03 08:17:16;;;;;;;2.88;1.20;;;21.70;40.80;;;;;;5048373;28;20075;-76
2021/05/03 08:19:42;;;;;;;3.92;1.60;;;22.00;40.40;;;;;;5048378;28;20064;-76
2021/05/03 08:22:08;;;;;;;1.33;1.23;;;23.00;39.30;;;;;;5048300;28;20690;-76
2021/05/03 08:24:35;;;;;;;1.35;1.25;;;23.40;38.70;;;;;;5045811;28;20033;-76
2021/05/03 08:27:02;;;;;;;1.63;1.17;;;24.90;36.90;;;;;;5048919;28;20136;-76
2021/05/03 08:29:29;;;;;;;1.38;1.27;;;23.70;37.20;;;;;;5050343;28;20521;-76
2021/05/03 08:31:56;;;;;;;2.05;1.30;;;24.60;35.30;;;;;;5046374;28;20785;-76
2021/05/03 08:34:23;;;;;;;2.08;1.40;;;24.70;35.20;;;;;;5046571;28;20029;-76
2021/05/03 08:36:50;;;;;;;7.65;1.48;;;25.40;34.80;;;;;;5048461;28;20033;-77
2021/05/03 08:39:15;;;;;;;2.15;1.33;;;25.30;34.50;;;;;;5049014;28;20032;-77
2021/05/03 08:41:41;;;;;;;1.40;1.30;;;24.20;36.60;;;;;;5049750;28;20124;-77
2021/05/03 08:44:07;;;;;;;1.83;1.30;;;24.20;36.70;;;;;;5044569;28;20039;-82
2021/05/03 08:46:38;;;;;;;1.10;1.10;;;24.90;36.20;;;;;;5041873;28;20055;-74
2021/05/03 08:54:40;;;;;;;4.80;1.20;;;23.90;36.30;;;;;;5048141;28;20130;-75
2021/05/03 08:57:07;;;;;;;2.97;1.60;;;24.30;36.00;;;;;;5045723;28;20067;-75
2021/05/03 08:59:37;;;;;;;1.83;1.25;;;24.30;34.90;;;;;;5045501;28;20044;-76
2021/05/03 09:02:09;;;;;;;1.60;1.20;;;23.90;35.20;;;;;;5045554;28;20039;-76
2021/05/03 09:04:34;;;;;;;1.75;1.38;;;23.80;36.40;;;;;;5047414;28;20025;-76
2021/05/03 09:07:14;;;;;;;1.20;1.13;;;23.80;37.10;;;;;;5047587;28;20037;-76
2021/05/03 09:09:52;;;;;;;1.45;1.30;;;24.30;38.30;;;;;;5046228;28;20036;-76
2021/05/03 09:12:20;;;;;;;1.52;1.30;;;24.00;35.80;;;;;;5042159;28;20111;-76
2021/05/03 09:14:58;;;;;;;1.65;1.50;;;24.00;36.20;;;;;;5048772;28;20078;-79
2021/05/03 09:17:31;;;;;;;5.25;1.10;;;23.60;37.30;;;;;;5047050;28;20491;-76
2021/05/03 09:19:58;;;;;;;1.50;1.25;;;23.90;35.60;;;;;;5046337;28;20431;-77
2021/05/03 09:22:41;;;;;;;1.35;1.25;;;24.00;36.50;;;;;;5049811;28;20123;-77
2021/05/03 09:25:39;;;;;;;1.65;1.40;;;23.80;35.30;;;;;;5049575;28;20021;-78
2021/05/03 09:28:18;;;;;;;1.10;1.10;;;23.80;36.70;;;;;;5049596;28;20052;-76
2021/05/03 09:30:57;;;;;;;1.17;1.08;;;24.20;35.00;;;;;;5048128;28;20087;-76
2021/05/03 09:33:24;;;;;;;1.10;1.00;;;24.30;34.90;;;;;;5048081;28;20033;-79
2021/05/03 09:35:57;;;;;;;1.92;1.20;;;24.70;34.20;;;;;;5051474;28;20028;-76
2021/05/03 09:38:43;;;;;;;2.72;1.65;;;24.10;34.60;;;;;;5049319;28;20032;-77
2021/05/03 09:41:28;;;;;;;1.63;1.52;;;24.80;35.10;;;;;;5053211;28;20021;-80
2021/05/03 09:44:06;;;;;;;3.95;1.23;;;24.90;36.40;;;;;;5050909;28;20478;-78
2021/05/03 09:46:41;;;;;;;4.55;1.15;;;25.90;30.60;;;;;;5050233;28;20025;-79
2021/05/03 09:49:18;;;;;;;1.85;1.20;;;25.00;33.80;;;;;;5051728;28;20055;-76
2021/05/03 09:51:59;;;;;;;2.75;1.40;;;23.80;33.70;;;;;;5047934;28;20566;-76
2021/05/03 09:54:30;;;;;;;4.85;1.13;;;24.50;32.80;;;;;;5050288;28;20025;-77
2021/05/03 09:57:05;;;;;;;2.53;1.35;;;23.30;35.30;;;;;;5050706;28;20083;-77
2021/05/03 09:59:43;;;;;;;0.77;0.77;;;22.60;36.90;;;;;;5048859;28;20029;-79
2021/05/03 10:02:21;;;;;;;1.10;1.10;;;22.90;37.00;;;;;;5048166;28;20798;-77
2021/05/03 10:07:34;;;;;;;1.30;1.20;;;23.00;34.90;;;;;;5048091;28;20147;-77
2021/05/03 10:10:07;;;;;;;2.85;1.08;;;23.40;33.50;;;;;;5051623;28;20037;-77
2021/05/03 10:12:33;;;;;;;2.65;0.98;;;23.30;32.00;;;;;;5050154;28;20404;-76
2021/05/03 10:15:02;;;;;;;0.90;0.90;;;23.10;31.90;;;;;;5051451;28;20420;-76
2021/05/03 10:17:30;;;;;;;3.60;1.08;;;22.80;33.60;;;;;;5050063;28;20029;-77
2021/05/03 10:20:00;;;;;;;1.45;0.90;;;23.20;32.40;;;;;;5047758;28;20496;-76
2021/05/03 10:22:28;;;;;;;0.80;0.80;;;23.20;31.00;;;;;;5049528;28;20419;-78
2021/05/03 10:25:04;;;;;;;1.10;0.90;;;23.10;30.30;;;;;;5045981;28;20120;-76
2021/05/03 10:27:32;;;;;;;1.10;1.00;;;23.10;31.00;;;;;;5046704;28;20044;-76
2021/05/03 10:30:11;;;;;;;2.50;0.60;;;22.90;31.40;;;;;;5046127;28;20033;-75
2021/05/03 10:32:38;;;;;;;2.15;1.10;;;23.10;30.40;;;;;;5048857;28;20025;-75
2021/05/03 10:35:22;;;;;;;1.52;0.85;;;23.30;30.50;;;;;;5049310;28;20086;-76
2021/05/03 10:37:49;;;;;;;2.95;0.73;;;23.20;29.30;;;;;;5050257;28;20096;-75
2021/05/03 10:40:20;;;;;;;1.10;0.80;;;23.20;30.00;;;;;;5051741;28;20033;-75
2021/05/03 10:43:01;;;;;;;1.08;0.80;;;23.70;30.70;;;;;;5051539;28;20048;-76
2021/05/03 10:46:00;;;;;;;0.70;0.70;;;22.90;31.20;;;;;;5050641;28;20029;-75
2021/05/03 10:51:50;;;;;;;0.80;0.80;;;22.60;31.70;;;;;;5048449;28;20454;-76
2021/05/03 10:57:27;;;;;;;2.65;0.73;;;23.00;30.90;;;;;;5048939;28;20118;-74
2021/05/03 10:59:58;;;;;;;0.80;0.80;;;22.80;32.50;;;;;;5045501;28;20488;-75
2021/05/03 11:02:39;;;;;;;1.20;0.93;;;23.60;30.20;;;;;;5047718;28;20500;-75
2021/05/03 11:05:14;;;;;;;0.88;0.88;;;22.80;31.50;;;;;;5054164;28;20575;-74
2021/05/03 11:08:04;;;;;;;0.70;0.70;;;23.30;30.10;;;;;;5048503;28;20048;-74
2021/05/03 11:11:05;;;;;;;0.57;0.57;;;22.90;31.70;;;;;;5046465;28;20037;-72
2021/05/03 11:13:40;;;;;;;1.27;0.60;;;22.30;30.20;;;;;;5049317;28;20496;-74
2021/05/03 11:16:28;;;;;;;0.52;0.52;;;22.00;31.50;;;;;;5049424;28;20028;-75
2021/05/03 11:18:59;;;;;;;0.50;0.50;;;21.90;32.00;;;;;;5047531;28;20057;-75
2021/05/03 11:21:47;;;;;;;1.83;0.73;;;21.50;31.10;;;;;;5045038;28;20459;-73
2021/05/03 11:24:24;;;;;;;0.57;0.57;;;20.90;32.70;;;;;;5044825;28;20036;-74
2021/05/03 11:27:07;;;;;;;1.92;0.73;;;20.90;33.80;;;;;;5050308;28;20036;-74
2021/05/03 11:29:56;;;;;;;2.25;0.50;;;21.60;33.50;;;;;;5049278;28;20134;-74
2021/05/03 11:32:36;;;;;;;0.75;0.52;;;21.90;29.70;;;;;;5048303;28;20644;-75
2021/05/03 11:37:58;;;;;;;2.17;0.60;;;21.80;29.80;;;;;;5050487;28;20079;-74
2021/05/03 11:40:48;;;;;;;0.85;0.40;;;21.50;29.30;;;;;;5051255;28;20519;-75
2021/05/03 11:46:15;;;;;;;1.27;0.40;;;22.20;28.70;;;;;;5055586;28;20035;-75
2021/05/03 11:48:40;;;;;;;1.65;0.40;;;21.70;30.20;;;;;;5056469;28;20029;-75
2021/05/03 11:51:13;;;;;;;0.57;0.57;;;21.50;33.50;;;;;;5066955;28;20033;-75
2021/05/03 11:53:44;;;;;;;0.80;0.55;;;21.00;31.60;;;;;;5054514;28;20115;-74
2021/05/03 11:56:28;;;;;;;0.70;0.30;;;19.50;33.40;;;;;;5059901;28;20115;-76
2021/05/03 11:58:59;;;;;;;0.68;0.40;;;19.20;33.50;;;;;;5050396;28;20372;-78
2021/05/03 12:01:30;;;;;;;0.30;0.30;;;19.60;34.10;;;;;;5049209;28;20029;-77
2021/05/03 12:03:58;;;;;;;1.08;0.28;;;18.90;34.60;;;;;;5049221;28;20031;-77
2021/05/03 12:06:36;;;;;;;0.20;0.20;;;18.50;37.40;;;;;;5058876;28;20510;-78
2021/05/03 12:09:14;;;;;;;0.30;0.30;;;18.20;39.10;;;;;;5051196;28;20821;-77
2021/05/03 12:11:56;;;;;;;5.32;0.47;;;19.00;36.60;;;;;;5051611;28;20033;-78
2021/05/03 12:14:49;;;;;;;0.20;0.20;;;19.50;34.60;;;;;;5040171;28;20017;-77
2021/05/03 12:17:17;;;;;;;21.50;1.63;;;19.50;33.70;;;;;;5048973;28;20025;-76
2021/05/03 12:19:47;;;;;;;0.73;0.32;;;18.80;36.40;;;;;;5044437;28;20535;-76
2021/05/03 12:22:13;;;;;;;94.20;6.93;;;19.40;33.40;;;;;;5049222;28;20033;-79
2021/05/03 12:24:43;;;;;;;7.72;1.02;;;19.30;37.50;;;;;;5044538;28;20512;-77
2021/05/03 12:27:09;;;;;;;1.17;0.57;;;19.10;37.30;;;;;;5047118;28;20219;-76
2021/05/03 12:29:38;;;;;;;0.70;0.45;;;19.10;35.90;;;;;;5046082;28;20024;-75
2021/05/03 12:32:09;;;;;;;0.45;0.28;;;18.60;37.20;;;;;;5045480;28;20017;-76
2021/05/03 12:34:39;;;;;;;0.20;0.20;;;18.20;36.40;;;;;;5047615;28;20079;-76
2021/05/03 12:37:17;;;;;;;0.17;0.17;;;18.00;36.90;;;;;;5046087;28;20060;-76
2021/05/03 12:39:58;;;;;;;0.32;0.28;;;18.10;36.70;;;;;;5049344;28;20040;-78
2021/05/03 12:42:29;;;;;;;2.15;0.43;;;18.70;35.80;;;;;;5046757;28;20562;-76
2021/05/03 12:44:57;;;;;;;0.30;0.30;;;18.90;35.70;;;;;;5047174;28;20496;-75
2021/05/03 12:50:22;;;;;;;0.63;0.35;;;18.10;38.10;;;;;;5047624;28;20036;-75
2021/05/03 12:58:56;;;;;;;0.38;0.30;;;18.00;39.90;;;;;;5051845;28;20147;-76
2021/05/03 13:09:25;;;;;;;0.17;0.15;;;17.80;38.50;;;;;;5049822;28;20064;-76
2021/05/03 13:12:07;;;;;;;0.32;0.30;;;18.10;41.10;;;;;;5047858;28;20017;-79
2021/05/03 13:29:13;;;;;;;0.25;0.25;;;17.20;43.00;;;;;;5050653;28;20040;-77
2021/05/03 13:31:44;;;;;;;1.33;0.30;;;17.30;44.40;;;;;;5047725;28;20029;-78
2021/05/03 13:34:12;;;;;;;1.60;0.45;;;17.30;40.50;;;;;;5049830;28;20549;-76
2021/05/03 13:36:40;;;;;;;0.98;0.40;;;17.40;41.80;;;;;;5050660;28;20023;-76
2021/05/03 13:39:07;;;;;;;2.20;0.38;;;16.90;41.50;;;;;;5051830;28;20505;-78
2021/05/03 13:41:38;;;;;;;5.10;0.80;;;17.40;43.20;;;;;;5048376;28;20053;-76
2021/05/03 13:44:05;;;;;;;0.20;0.20;;;17.80;40.90;;;;;;5047797;28;20055;-73
2021/05/03 13:46:31;;;;;;;0.25;0.25;;;18.10;41.50;;;;;;5052531;28;20430;-77
2021/05/03 13:48:57;;;;;;;0.75;0.30;;;17.30;38.30;;;;;;5051558;28;20071;-76
2021/05/03 13:51:23;;;;;;;1.33;0.50;;;17.30;38.90;;;;;;5054992;28;20124;-76
2021/05/03 13:53:50;;;;;;;22.55;4.22;;;18.00;38.10;;;;;;5050889;28;20225;-76
2021/05/03 13:56:16;;;;;;;0.20;0.20;;;17.90;38.40;;;;;;5052879;28;20020;-75
2021/05/03 13:58:43;;;;;;;2.08;0.40;;;17.80;33.70;;;;;;5051771;28;20031;-77
2021/05/03 14:01:09;;;;;;;2.45;0.30;;;17.60;38.00;;;;;;5051030;28;20044;-77
2021/05/03 14:03:35;;;;;;;0.52;0.30;;;18.30;38.30;;;;;;5050233;28;20434;-80
2021/05/03 14:06:04;;;;;;;0.38;0.30;;;18.80;31.30;;;;;;5056642;28;20035;-77
2021/05/03 14:08:29;;;;;;;16.98;1.02;;;18.80;34.60;;;;;;5050265;28;20531;-77
2021/05/03 14:10:55;;;;;;;0.93;0.47;;;19.60;35.10;;;;;;5051345;28;20104;-77